createdAt,value
2018-09-19T00:00:22.838Z,100303.16
2018-09-19T00:02:51.858Z,100308.70
2018-09-19T00:05:20.706Z,100301.77
2018-09-19T00:07:49.773Z,100305.48
2018-09-19T00:10:18.683Z,100308.98
2018-09-19T00:12:47.618Z,100305.59
2018-09-19T00:15:16.903Z,100302.64
2018-09-19T00:17:45.908Z,100310.80
2018-09-19T00:20:14.928Z,100299.96
2018-09-19T00:22:44.076Z,100301.95
2018-09-19T00:25:13.085Z,100304.44
2018-09-19T00:27:41.982Z,100303.77
2018-09-19T00:30:10.794Z,100305.57
2018-09-19T00:32:39.736Z,100299.56
2018-09-19T00:35:08.589Z,100293.86
2018-09-19T00:37:37.533Z,100287.30
2018-09-19T00:40:06.410Z,100290.45
2018-09-19T00:42:35.329Z,100286.62
2018-09-19T00:45:04.602Z,100295.58
2018-09-19T00:47:33.362Z,100291.00
2018-09-19T00:50:02.431Z,100296.15
2018-09-19T00:52:31.392Z,100296.05
2018-09-19T00:55:00.404Z,100294.64
2018-09-19T00:57:29.376Z,100297.20
2018-09-19T00:59:58.709Z,100300.06
2018-09-19T01:02:27.536Z,100296.91
2018-09-19T01:04:56.403Z,100296.05
2018-09-19T01:07:25.544Z,100292.35
2018-09-19T01:09:54.568Z,100290.64
2018-09-19T01:12:23.571Z,100283.33
2018-09-19T01:14:52.737Z,100286.63
2018-09-19T01:17:21.847Z,100283.59
2018-09-19T01:19:50.768Z,100280.83
2018-09-19T01:22:20.000Z,100277.52
2018-09-19T01:24:49.015Z,100272.84
2018-09-19T01:27:17.839Z,100270.95
2018-09-19T01:29:46.831Z,100272.48
2018-09-19T01:32:15.757Z,100264.02
2018-09-19T01:34:44.742Z,100269.22
2018-09-19T01:37:13.786Z,100262.77
2018-09-19T01:39:42.806Z,100265.43
2018-09-19T01:42:11.745Z,100263.34
2018-09-19T01:44:40.966Z,100264.20
2018-09-19T01:47:09.751Z,100267.44
2018-09-19T01:49:38.824Z,100269.34
2018-09-19T01:52:08.048Z,100272.39
2018-09-19T01:54:36.876Z,100265.81
2018-09-19T01:57:05.866Z,100259.05
2018-09-19T01:59:35.025Z,100264.75
2018-09-19T02:02:04.040Z,100267.05
2018-09-19T02:04:33.057Z,100262.84
2018-09-19T02:07:02.235Z,100268.00
2018-09-19T02:09:31.280Z,100270.28
2018-09-19T02:12:00.207Z,100264.09
2018-09-19T02:14:29.145Z,100267.61
2018-09-19T02:16:58.169Z,100270.75
2018-09-19T02:19:27.059Z,100271.33
2018-09-19T02:21:56.326Z,100270.48
2018-09-19T02:24:26.226Z,100269.33
2018-09-19T02:26:55.132Z,100270.10
2018-09-19T02:29:24.143Z,100276.28
2018-09-19T02:31:53.128Z,100279.62
2018-09-19T02:34:21.977Z,100282.75
2018-09-19T02:36:50.992Z,100273.04
2018-09-19T02:39:19.927Z,100274.93
2018-09-19T02:41:48.789Z,100272.94
2018-09-19T02:44:17.781Z,100266.17
2018-09-19T02:46:46.582Z,100269.09
2018-09-19T02:49:15.490Z,100268.81
2018-09-19T02:51:44.411Z,100271.00
2018-09-19T02:54:13.168Z,100263.55
2018-09-19T02:56:42.152Z,100268.31
2018-09-19T02:59:11.179Z,100268.51
2018-09-19T03:01:40.176Z,100273.23
2018-09-19T03:04:09.100Z,100272.28
2018-09-19T03:06:38.271Z,100279.03
2018-09-19T03:09:07.406Z,100276.66
2018-09-19T03:11:36.303Z,100276.44
2018-09-19T03:14:05.279Z,100283.25
2018-09-19T03:16:34.244Z,100286.86
2018-09-19T03:19:03.161Z,100280.20
2018-09-19T03:21:32.215Z,100289.36
2018-09-19T03:24:01.255Z,100291.42
2018-09-19T03:26:30.376Z,100292.37
2018-09-19T03:28:59.765Z,100286.48
2018-09-19T03:31:28.701Z,100290.28
2018-09-19T03:33:57.604Z,100286.67
2018-09-19T03:36:26.723Z,100295.13
2018-09-19T03:38:55.750Z,100286.63
2018-09-19T03:41:24.810Z,100284.44
2018-09-19T03:43:54.316Z,100284.87
2018-09-19T03:46:23.228Z,100289.44
2018-09-19T03:48:52.012Z,100285.69
2018-09-19T03:51:21.399Z,100288.83
2018-09-19T03:53:50.326Z,100284.34
2018-09-19T03:56:19.245Z,100290.58
2018-09-19T03:58:48.302Z,100288.96
2018-09-19T04:01:17.058Z,100290.58
2018-09-19T04:03:46.104Z,100291.05
2018-09-19T04:06:16.332Z,100289.86
2018-09-19T04:08:45.234Z,100286.92
2018-09-19T04:11:14.168Z,100289.01
2018-09-19T04:13:43.049Z,100292.43
2018-09-19T04:16:11.853Z,100293.94
2018-09-19T04:18:40.938Z,100290.77
2018-09-19T04:21:09.904Z,100292.38
2018-09-19T04:23:38.780Z,100296.37
2018-09-19T04:26:07.781Z,100297.27
2018-09-19T04:28:36.831Z,100298.27
2018-09-19T04:31:05.890Z,100304.39
2018-09-19T04:33:34.751Z,100305.81
2018-09-19T04:36:05.412Z,100308.86
2018-09-19T04:38:34.290Z,100314.45
2018-09-19T04:41:03.458Z,100320.16
2018-09-19T04:43:34.285Z,100320.64
2018-09-19T04:46:04.404Z,100318.02
2018-09-19T04:48:33.554Z,100316.25
2018-09-19T04:51:02.730Z,100309.16
2018-09-19T04:54:19.378Z,100314.00
2018-09-19T04:56:48.527Z,100315.46
2018-09-19T04:59:17.985Z,100321.67
2018-09-19T05:01:47.027Z,100320.27
2018-09-19T05:04:16.288Z,100320.95
2018-09-19T05:06:45.142Z,100324.48
2018-09-19T05:09:14.198Z,100321.42
2018-09-19T05:11:43.439Z,100318.69
2018-09-19T05:14:12.512Z,100316.52
2018-09-19T05:16:41.510Z,100316.04
2018-09-19T05:19:10.801Z,100317.85
2018-09-19T05:21:39.899Z,100320.03
2018-09-19T05:24:08.874Z,100324.89
2018-09-19T05:26:37.931Z,100320.12
2018-09-19T05:29:06.860Z,100316.98
2018-09-19T05:31:35.777Z,100322.52
2018-09-19T05:34:05.358Z,100319.28
2018-09-19T05:36:34.222Z,100318.91
2018-09-19T05:39:03.208Z,100320.13
2018-09-19T05:41:31.999Z,100318.50
2018-09-19T05:44:00.969Z,100325.85
2018-09-19T05:46:29.899Z,100334.50
2018-09-19T05:48:58.918Z,100333.92
2018-09-19T05:51:29.265Z,100329.83
2018-09-19T05:53:58.044Z,100338.89
2018-09-19T05:56:27.241Z,100334.21
2018-09-19T05:58:56.229Z,100341.73
2018-09-19T06:01:25.285Z,100339.35
2018-09-19T06:03:54.406Z,100341.61
2018-09-19T06:06:24.727Z,100344.48
2018-09-19T06:08:54.737Z,100345.89
2018-09-19T06:11:26.176Z,100349.98
2018-09-19T06:13:55.793Z,100348.83
2018-09-19T06:16:25.157Z,100348.65
2018-09-19T06:18:54.084Z,100345.77
2018-09-19T06:21:23.285Z,100354.04
2018-09-19T06:23:53.151Z,100345.92
2018-09-19T06:26:22.049Z,100356.00
2018-09-19T06:28:50.949Z,100350.54
2018-09-19T06:31:19.842Z,100351.86
2018-09-19T06:33:49.610Z,100348.99
2018-09-19T06:36:20.501Z,100357.03
2018-09-19T06:38:49.917Z,100362.56
2018-09-19T06:41:18.875Z,100364.33
2018-09-19T06:43:48.198Z,100361.48
2018-09-19T06:46:21.066Z,100364.28
2018-09-19T06:48:50.585Z,100365.85
2018-09-19T06:51:19.471Z,100361.14
2018-09-19T06:53:48.919Z,100357.55
2018-09-19T06:56:17.917Z,100363.94
2018-09-19T06:58:46.833Z,100363.49
2018-09-19T07:01:15.683Z,100367.61
2018-09-19T07:03:45.345Z,100365.26
2018-09-19T07:06:14.208Z,100366.66
2018-09-19T07:08:43.126Z,100360.92
2018-09-19T07:11:12.278Z,100357.78
2018-09-19T07:13:41.108Z,100360.16
2018-09-19T07:16:09.949Z,100359.35
2018-09-19T07:18:39.760Z,100360.34
2018-09-19T07:21:08.619Z,100354.58
2018-09-19T07:23:37.569Z,100352.31
2018-09-19T07:26:06.997Z,100355.59
2018-09-19T07:28:35.864Z,100349.08
2018-09-19T07:31:04.877Z,100350.09
2018-09-19T07:33:34.437Z,100351.67
2018-09-19T07:36:03.417Z,100354.87
2018-09-19T07:38:32.194Z,100352.70
2018-09-19T07:41:01.574Z,100350.99
2018-09-19T07:43:30.453Z,100357.42
2018-09-19T07:45:59.303Z,100350.11
2018-09-19T07:48:29.299Z,100351.14
2018-09-19T07:50:58.098Z,100353.84
2018-09-19T07:53:41.820Z,100351.42
2018-09-19T07:58:44.667Z,100342.66
2018-09-19T08:01:13.574Z,100350.48
2018-09-19T08:03:42.467Z,100339.98
2018-09-19T08:06:11.337Z,100344.49
2018-09-19T08:08:40.229Z,100335.46
2018-09-19T08:11:09.094Z,100337.38
2018-09-19T08:13:38.306Z,100336.33
2018-09-19T08:16:07.095Z,100336.98
2018-09-19T08:18:36.014Z,100332.73
2018-09-19T08:21:04.873Z,100336.29
2018-09-19T08:23:33.903Z,100327.45
2018-09-19T08:26:02.844Z,100320.84
2018-09-19T08:28:31.682Z,100327.20
2018-09-19T08:31:00.601Z,100325.45
2018-09-19T08:33:29.522Z,100321.42
2018-09-19T08:35:58.863Z,100322.31
2018-09-19T08:38:27.810Z,100319.20
2018-09-19T08:40:56.723Z,100315.70
2018-09-19T08:43:26.309Z,100303.66
2018-09-19T08:45:55.169Z,100308.55
2018-09-19T08:48:24.028Z,100307.59
2018-09-19T08:50:53.162Z,100303.70
2018-09-19T08:53:21.960Z,100301.02
2018-09-19T08:55:50.800Z,100288.84
2018-09-19T08:58:20.025Z,100296.00
2018-09-19T09:00:48.913Z,100290.72
2018-09-19T09:03:17.691Z,100291.99
2018-09-19T09:05:46.635Z,100284.41
2018-09-19T09:08:15.412Z,100283.89
2018-09-19T09:10:44.342Z,100284.77
2018-09-19T09:13:13.354Z,100283.00
2018-09-19T09:15:42.330Z,100285.45
2018-09-19T09:18:11.260Z,100277.78
2018-09-19T09:20:40.553Z,100271.62
2018-09-19T09:23:10.682Z,100279.24
2018-09-19T09:25:43.596Z,100274.78
2018-09-19T09:28:12.521Z,100278.31
2018-09-19T09:30:41.358Z,100280.42
2018-09-19T09:33:10.557Z,100271.03
2018-09-19T09:35:39.388Z,100267.78
2018-09-19T09:38:08.359Z,100268.94
2018-09-19T09:40:38.422Z,100266.60
2018-09-19T09:43:07.353Z,100263.18
2018-09-19T09:45:36.279Z,100258.92
2018-09-19T09:48:05.184Z,100259.27
2018-09-19T09:50:34.289Z,100258.78
2018-09-19T09:53:03.288Z,100258.48
2018-09-19T09:55:32.515Z,100253.39
2018-09-19T09:58:15.094Z,100250.98
2018-09-19T10:00:44.228Z,100248.27
2018-09-19T10:03:13.740Z,100245.22
2018-09-19T10:05:42.770Z,100244.79
2018-09-19T10:08:12.208Z,100236.79
2018-09-19T10:10:41.084Z,100231.78
2018-09-19T10:13:09.928Z,100229.16
2018-09-19T10:15:39.554Z,100241.14
2018-09-19T10:18:08.757Z,100238.44
2018-09-19T10:20:37.826Z,100234.02
2018-09-19T10:23:10.656Z,100237.92
2018-09-19T10:25:39.668Z,100237.47
2018-09-19T10:28:08.607Z,100230.54
2018-09-19T10:30:39.163Z,100238.48
2018-09-19T10:33:08.119Z,100233.42
2018-09-19T10:35:37.255Z,100231.38
2018-09-19T10:38:06.397Z,100223.19
2018-09-19T10:40:41.933Z,100218.27
2018-09-19T10:43:11.198Z,100206.80
2018-09-19T10:45:40.066Z,100213.39
2018-09-19T10:48:09.033Z,100206.23
2018-09-19T10:50:38.256Z,100195.37
2018-09-19T10:53:10.981Z,100197.34
2018-09-19T10:55:44.904Z,100191.11
2018-09-19T10:58:14.054Z,100184.33
2018-09-19T11:00:42.993Z,100192.34
2018-09-19T11:03:12.517Z,100186.18
2018-09-19T11:05:41.502Z,100177.78
2018-09-19T11:08:10.534Z,100178.50
2018-09-19T11:10:39.728Z,100174.94
2018-09-19T11:13:08.726Z,100173.34
2018-09-19T11:15:51.294Z,100170.80
2018-09-19T11:18:20.207Z,100162.55
2018-09-19T11:20:49.035Z,100157.26
2018-09-19T11:23:18.341Z,100166.90
2018-09-19T11:25:47.294Z,100153.75
2018-09-19T11:28:17.272Z,100158.36
2018-09-19T11:30:46.459Z,100158.84
2018-09-19T11:33:15.328Z,100148.20
2018-09-19T11:35:44.373Z,100152.61
2018-09-19T11:38:13.916Z,100148.16
2018-09-19T11:40:44.636Z,100151.36
2018-09-19T11:43:17.271Z,100137.41
2018-09-19T11:45:47.331Z,100142.73
2018-09-19T11:48:16.648Z,100139.27
2018-09-19T11:50:46.470Z,100132.45
2018-09-19T11:53:24.969Z,100133.33
2018-09-19T11:55:54.136Z,100127.80
2018-09-19T11:58:23.249Z,100124.00
2018-09-19T12:00:52.280Z,100126.36
2018-09-19T12:03:21.881Z,100130.08
2018-09-19T12:05:50.957Z,100122.86
2018-09-19T12:08:20.851Z,100118.42
2018-09-19T12:10:49.662Z,100115.26
2018-09-19T12:13:18.558Z,100129.73
2018-09-19T12:15:47.513Z,100115.38
2018-09-19T12:18:16.381Z,100112.08
2018-09-19T12:20:45.305Z,100102.58
2018-09-19T12:23:14.207Z,100097.27
2018-09-19T12:25:43.004Z,100103.27
2018-09-19T12:28:12.101Z,100106.58
2018-09-19T12:30:42.485Z,100094.22
2018-09-19T12:33:12.402Z,100096.47
2018-09-19T12:35:41.465Z,100087.59
2018-09-19T12:38:10.923Z,100081.73
2018-09-19T12:40:40.202Z,100074.36
2018-09-19T12:43:15.060Z,100070.20
2018-09-19T12:45:44.185Z,100074.31
2018-09-19T12:48:13.091Z,100072.05
2018-09-19T12:50:41.987Z,100076.45
2018-09-19T12:53:10.925Z,100067.25
2018-09-19T12:55:39.748Z,100066.59
2018-09-19T12:58:09.055Z,100063.61
2018-09-19T13:00:38.015Z,100062.81
2018-09-19T13:03:07.124Z,100059.38
2018-09-19T13:05:36.229Z,100064.91
2018-09-19T13:08:05.583Z,100054.59
2018-09-19T13:10:34.596Z,100056.52
2018-09-19T13:13:03.820Z,100048.58
2018-09-19T13:15:32.701Z,100046.27
2018-09-19T13:18:06.297Z,100049.76
2018-09-19T13:20:35.222Z,100041.69
2018-09-19T13:23:04.055Z,100042.75
2018-09-19T13:25:33.007Z,100044.48
2018-09-19T13:28:01.913Z,100038.44
2018-09-19T13:30:30.657Z,100035.09
2018-09-19T13:33:00.097Z,100024.06
2018-09-19T13:35:28.866Z,100020.31
2018-09-19T13:37:58.120Z,100019.30
2018-09-19T13:40:27.523Z,100017.95
2018-09-19T13:42:56.724Z,100009.58
2018-09-19T13:45:25.693Z,100012.45
2018-09-19T13:47:54.928Z,100012.09
2018-09-19T13:50:39.820Z,100015.75
2018-09-19T13:53:09.802Z,100012.59
2018-09-19T13:55:38.738Z,100009.16
2018-09-19T13:58:07.843Z,100007.46
2018-09-19T14:00:36.882Z,99999.89
2018-09-19T14:03:06.033Z,99994.67
2018-09-19T14:05:35.017Z,99997.01
2018-09-19T14:08:10.724Z,99991.66
2018-09-19T14:10:40.199Z,99997.17
2018-09-19T14:13:13.821Z,99988.75
2018-09-19T14:15:43.649Z,99991.65
2018-09-19T14:18:13.131Z,99993.70
2018-09-19T14:20:43.202Z,99989.62
2018-09-19T14:23:12.686Z,99987.94
2018-09-19T14:25:41.781Z,99987.00
2018-09-19T14:28:11.231Z,99989.27
2018-09-19T14:30:41.332Z,99983.48
2018-09-19T14:33:12.459Z,99985.14
2018-09-19T14:35:41.273Z,99979.09
2018-09-19T14:38:10.629Z,99979.82
2018-09-19T14:40:40.502Z,99978.13
2018-09-19T14:43:10.198Z,99977.09
2018-09-19T14:45:39.182Z,99975.88
2018-09-19T14:48:10.211Z,99975.00
2018-09-19T14:50:43.300Z,99980.25
2018-09-19T14:53:14.613Z,99976.19
2018-09-19T14:55:43.573Z,99977.67
2018-09-19T14:58:12.468Z,99974.33
2018-09-19T15:00:41.941Z,99971.77
2018-09-19T15:03:11.860Z,99974.80
2018-09-19T15:05:41.814Z,99975.95
2018-09-19T15:08:10.762Z,99977.61
2018-09-19T15:10:39.683Z,99978.28
2018-09-19T15:13:08.583Z,99977.27
2018-09-19T15:15:37.650Z,99983.52
2018-09-19T15:18:06.674Z,99984.53
2018-09-19T15:20:35.802Z,99981.02
2018-09-19T15:23:04.740Z,99977.94
2018-09-19T15:25:33.576Z,99985.34
2018-09-19T15:28:03.144Z,99985.63
2018-09-19T15:30:32.010Z,99979.88
2018-09-19T15:33:01.171Z,99984.14
2018-09-19T15:35:31.448Z,99982.23
2018-09-19T15:38:00.448Z,99985.11
2018-09-19T15:40:29.400Z,99980.84
2018-09-19T15:42:58.488Z,99984.19
2018-09-19T15:45:27.299Z,99980.52
2018-09-19T15:47:56.330Z,99983.52
2018-09-19T15:50:26.249Z,99989.08
2018-09-19T15:52:55.041Z,99980.57
2018-09-19T15:55:24.037Z,99981.20
2018-09-19T15:57:52.960Z,99977.25
2018-09-19T16:00:22.105Z,99979.27
2018-09-19T16:02:51.045Z,99977.58
2018-09-19T16:05:24.358Z,99979.03
2018-09-19T16:07:53.764Z,99978.59
2018-09-19T16:10:22.672Z,99978.87
2018-09-19T16:12:52.788Z,99975.27
2018-09-19T16:15:21.609Z,99974.79
2018-09-19T16:17:50.650Z,99980.06
2018-09-19T16:20:19.751Z,99983.99
2018-09-19T16:22:48.747Z,99984.66
2018-09-19T16:25:17.537Z,99984.59
2018-09-19T16:27:46.496Z,99984.20
2018-09-19T16:30:15.313Z,99986.07
2018-09-19T16:32:44.302Z,99985.16
2018-09-19T16:35:13.569Z,99989.70
2018-09-19T16:37:42.539Z,99984.04
2018-09-19T16:40:11.558Z,99990.90
2018-09-19T16:42:40.849Z,99988.58
2018-09-19T16:46:39.276Z,99992.98
2018-09-19T16:55:54.608Z,100004.88
2018-09-19T16:58:23.616Z,100006.35
2018-09-19T17:00:52.753Z,100011.22
2018-09-19T17:03:21.780Z,100015.47
2018-09-19T17:05:50.899Z,100013.33
2018-09-19T17:08:19.880Z,100015.00
2018-09-19T17:10:48.804Z,100026.88
2018-09-19T17:13:17.664Z,100028.55
2018-09-19T17:15:46.920Z,100036.68
2018-09-19T17:18:16.403Z,100034.03
2018-09-19T17:20:45.375Z,100032.97
2018-09-19T17:23:14.387Z,100036.39
2018-09-19T17:25:43.373Z,100035.30
2018-09-19T17:28:12.149Z,100032.54
2018-09-19T17:30:41.099Z,100037.70
2018-09-19T17:33:10.462Z,100046.98
2018-09-19T17:35:39.352Z,100043.02
2018-09-19T17:38:08.427Z,100047.56
2018-09-19T17:40:37.413Z,100056.17
2018-09-19T17:43:06.477Z,100049.81
2018-09-19T17:45:35.374Z,100054.99
2018-09-19T17:48:04.528Z,100060.14
2018-09-19T17:50:33.584Z,100056.22
2018-09-19T17:53:02.538Z,100060.58
2018-09-19T17:55:34.049Z,100070.03
2018-09-19T17:58:02.985Z,100071.44
2018-09-19T18:00:31.952Z,100084.51
2018-09-19T18:03:01.497Z,100094.43
2018-09-19T18:05:30.460Z,100098.52
2018-09-19T18:07:59.510Z,100101.63
2018-09-19T18:10:28.780Z,100102.61
2018-09-19T18:12:57.705Z,100095.95
2018-09-19T18:15:26.613Z,100102.33
2018-09-19T18:17:56.055Z,100103.69
2018-09-19T18:20:25.058Z,100103.40
2018-09-19T18:22:54.016Z,100102.06
2018-09-19T18:25:23.327Z,100102.83
2018-09-19T18:27:52.185Z,100107.50
2018-09-19T18:30:21.280Z,100101.07
2018-09-19T18:32:51.355Z,100106.01
2018-09-19T18:35:20.492Z,100106.32
2018-09-19T18:37:49.437Z,100110.21
2018-09-19T18:40:18.432Z,100106.82
2018-09-19T18:42:47.397Z,100114.98
2018-09-19T18:45:16.301Z,100118.09
2018-09-19T18:47:45.170Z,100122.61
2018-09-19T18:50:14.193Z,100123.46
2018-09-19T18:52:46.477Z,100121.66
2018-09-19T18:55:15.527Z,100127.16
2018-09-19T18:57:44.540Z,100127.38
2018-09-19T19:00:13.598Z,100129.38
2018-09-19T19:02:42.603Z,100131.92
2018-09-19T19:05:11.499Z,100134.73
2018-09-19T19:07:40.797Z,100130.59
2018-09-19T19:10:09.610Z,100128.17
2018-09-19T19:12:38.659Z,100133.28
2018-09-19T19:15:08.080Z,100128.30
2018-09-19T19:17:36.927Z,100126.11
2018-09-19T19:20:05.912Z,100132.67
2018-09-19T19:22:35.323Z,100128.44
2018-09-19T19:25:04.209Z,100131.34
2018-09-19T19:27:32.949Z,100135.02
2018-09-19T19:30:02.391Z,100133.27
2018-09-19T19:32:31.210Z,100138.14
2018-09-19T19:35:00.178Z,100139.71
2018-09-19T19:37:29.870Z,100137.39
2018-09-19T19:39:58.635Z,100132.14
2018-09-19T19:42:27.651Z,100147.12
2018-09-19T19:44:56.520Z,100143.21
2018-09-19T19:47:25.492Z,100137.86
2018-09-19T19:49:54.506Z,100149.79
2018-09-19T19:52:23.425Z,100146.53
2018-09-19T19:54:52.262Z,100147.59
2018-09-19T19:57:21.296Z,100149.79
2018-09-19T19:59:50.479Z,100147.11
2018-09-19T20:02:19.833Z,100143.11
2018-09-19T20:04:49.037Z,100141.53
2018-09-19T20:07:17.898Z,100147.62
2018-09-19T20:09:47.065Z,100148.13
2018-09-19T20:12:15.909Z,100150.07
2018-09-19T20:14:45.259Z,100149.08
2018-09-19T20:17:14.069Z,100156.00
2018-09-19T20:19:43.445Z,100157.60
2018-09-19T20:22:12.708Z,100156.97
2018-09-19T20:24:41.677Z,100162.56
2018-09-19T20:27:11.012Z,100162.93
2018-09-19T20:29:40.517Z,100166.19
2018-09-19T20:32:09.488Z,100170.53
2018-09-19T20:34:38.417Z,100170.17
2018-09-19T20:37:07.605Z,100166.97
2018-09-19T20:39:36.521Z,100168.06
2018-09-19T20:42:05.482Z,100169.69
2018-09-19T20:44:34.379Z,100167.42
2018-09-19T20:47:03.322Z,100169.84
2018-09-19T20:49:32.408Z,100173.41
2018-09-19T20:52:01.486Z,100169.69
2018-09-19T20:54:30.277Z,100177.55
2018-09-19T20:56:59.230Z,100185.14
2018-09-19T20:59:28.509Z,100182.77
2018-09-19T21:01:57.548Z,100187.70
2018-09-19T21:04:26.612Z,100185.56
2018-09-19T21:06:55.984Z,100184.64
2018-09-19T21:09:24.942Z,100184.09
2018-09-19T21:11:53.902Z,100178.50
2018-09-19T21:14:23.140Z,100177.88
2018-09-19T21:16:52.108Z,100176.54
2018-09-19T21:19:21.108Z,100174.04
2018-09-19T21:21:50.130Z,100181.80
2018-09-19T21:24:19.052Z,100184.89
2018-09-19T21:26:48.143Z,100180.30
2018-09-19T21:29:17.420Z,100180.71
2018-09-19T21:31:46.276Z,100175.90
2018-09-19T21:34:15.283Z,100179.73
2018-09-19T21:38:13.944Z,100183.95
2018-09-19T21:40:42.866Z,100183.37
2018-09-19T21:43:11.687Z,100179.00
2018-09-19T21:45:41.066Z,100184.19
2018-09-19T21:48:10.109Z,100180.75
2018-09-19T21:50:38.882Z,100179.75
2018-09-19T21:53:08.781Z,100186.05
2018-09-19T21:55:37.668Z,100181.19
2018-09-19T21:58:06.514Z,100184.08
2018-09-19T22:00:35.517Z,100180.30
2018-09-19T22:03:04.649Z,100178.19
2018-09-19T22:05:33.590Z,100177.78
2018-09-19T22:08:02.456Z,100171.52
2018-09-19T22:10:31.363Z,100174.36
2018-09-19T22:13:00.192Z,100170.14
2018-09-19T22:15:29.559Z,100180.38
2018-09-19T22:17:58.359Z,100183.27
2018-09-19T22:20:27.336Z,100178.93
2018-09-19T22:22:56.641Z,100180.04
2018-09-19T22:25:25.560Z,100184.86
2018-09-19T22:27:54.386Z,100189.01
2018-09-19T22:30:23.704Z,100188.64
2018-09-19T22:32:52.569Z,100190.19
2018-09-19T22:35:21.441Z,100185.92
2018-09-19T22:37:50.674Z,100182.33
2018-09-19T22:40:19.519Z,100180.14
2018-09-19T22:42:48.490Z,100178.80
2018-09-19T22:45:17.737Z,100180.63
2018-09-19T22:47:46.744Z,100182.66
2018-09-19T22:50:15.725Z,100181.94
2018-09-19T22:52:45.112Z,100184.23
2018-09-19T22:55:13.979Z,100177.43
2018-09-19T22:57:42.849Z,100183.62
2018-09-19T23:00:11.738Z,100186.02
2018-09-19T23:02:40.636Z,100172.20
2018-09-19T23:05:09.544Z,100175.35
2018-09-19T23:07:38.867Z,100176.83
2018-09-19T23:10:07.791Z,100171.23
2018-09-19T23:12:36.665Z,100174.48
2018-09-19T23:15:05.946Z,100175.23
2018-09-19T23:17:34.872Z,100168.67
2018-09-19T23:20:03.834Z,100170.05
2018-09-19T23:23:35.778Z,100169.51
2018-09-19T23:26:04.944Z,100174.90
2018-09-19T23:28:33.823Z,100168.63
2018-09-19T23:31:03.005Z,100166.17
2018-09-19T23:33:31.793Z,100169.20
2018-09-19T23:36:00.713Z,100160.64
2018-09-19T23:38:29.773Z,100157.98
2018-09-19T23:40:58.696Z,100162.06
2018-09-19T23:43:27.625Z,100155.47
2018-09-19T23:45:56.862Z,100157.00
2018-09-19T23:48:25.839Z,100158.92
2018-09-19T23:50:54.580Z,100152.47
2018-09-19T23:53:23.521Z,100153.61
2018-09-19T23:55:52.329Z,100148.97
2018-09-19T23:58:21.391Z,100150.77
